YCDU

Details ICAO YCDU (CED)
Name Ceduna
Region Australia
Timezone Australia/Adelaide (UTC+9.5)
Plans Departing 12
Arriving 19
Stats Elevation 77 ft / 23 m (AMSL)
Location -32.130596° 133.709774°
Runways 2
Magnetic Variation 5.466° E
Sunrise 2018-05-22 21:53:18 UTC / 2018-05-23 07:23:18 Local
Sunset 2018-05-23 08:13:19 UTC / 2018-05-23 17:43:19 Local
Advertisement - Login to hide

Runways

ID Width Length Bearing (true) Bearing (mag) Surface Threshold Offset Overrun Length
11 98 ft / 30 m 5,701 ft / 1,738 m 110.90° 105.43° Asphalt 0 ft / 0 m 0 ft / 0 m
17 112 ft / 34 m 3,823 ft / 1,165 m 173.40° 167.93° Unknown 0 ft / 0 m 0 ft / 0 m
29 98 ft / 30 m 5,701 ft / 1,738 m 290.90° 285.43° Asphalt 0 ft / 0 m 0 ft / 0 m
35 112 ft / 34 m 3,823 ft / 1,165 m 353.40° 347.93° Unknown 0 ft / 0 m 0 ft / 0 m

Map

Weather


0- 5 10 15 20 25 30 35+ Temperature / ° C

Clouds and Precipitation
Forecast for 2018-05-23 00:00 UTC. Updated 2 hours ago

Ground ~20,000 ft ~40,000 ft Winds

METAR

YCDU 230100Z AUTO 07009KT 9999 // OVC040 16/08 Q1031

TAF

Not found

Frequencies

Unicom 122.40 MHz ACTIVATE LIGHTS ONLY MULT
Unicom 122.10 MHz MELBOURNE CENTRE MULT
Unicom 126.70 MHz CEDUNA MULT
Warning: Do not use this data for real-world aviation or navigation. No guarantee of current accuracy is given.